createdAt,value
2018-11-28T00:02:23.954Z,-2.12
2018-11-28T00:04:52.889Z,-2.15
2018-11-28T00:07:22.194Z,-2.12
2018-11-28T00:09:51.603Z,-2.10
2018-11-28T00:12:44.463Z,-2.15
2018-11-28T00:15:17.456Z,-2.12
2018-11-28T00:17:46.521Z,-2.11
2018-11-28T00:20:34.995Z,-2.07
2018-11-28T00:23:04.432Z,-2.06
2018-11-28T00:25:33.368Z,-2.06
2018-11-28T00:28:04.865Z,-2.07
2018-11-28T00:30:53.362Z,-2.06
2018-11-28T00:33:22.402Z,-2.03
2018-11-28T00:35:51.417Z,-2.01
2018-11-28T00:38:20.695Z,-2.02
2018-11-28T00:46:07.341Z,-2.01
2018-11-28T00:48:36.106Z,-1.96
2018-11-28T00:51:04.791Z,-1.94
2018-11-28T00:53:33.556Z,-1.94
2018-11-28T00:56:21.540Z,-1.93
2018-11-28T00:58:50.335Z,-1.92
2018-11-28T01:01:38.284Z,-1.85
2018-11-28T01:04:07.002Z,-1.89
2018-11-28T01:06:35.812Z,-1.87
2018-11-28T01:09:23.812Z,-1.88
2018-11-28T01:11:52.618Z,-1.89
2018-11-28T01:14:21.498Z,-1.90
2018-11-28T01:17:09.504Z,-1.88
2018-11-28T01:19:38.147Z,-1.88
2018-11-28T01:22:06.845Z,-1.84
2018-11-28T01:24:54.840Z,-1.82
2018-11-28T01:27:23.500Z,-1.80
2018-11-28T01:29:54.893Z,-1.75
2018-11-28T01:32:45.820Z,-1.69
2018-11-28T01:35:15.633Z,-1.63
2018-11-28T01:37:44.485Z,-1.57
2018-11-28T01:40:32.767Z,-1.59
2018-11-28T01:43:20.751Z,-1.60
2018-11-28T01:45:49.525Z,-1.61
2018-11-28T01:48:37.524Z,-1.57
2018-11-28T01:51:07.022Z,-1.54
2018-11-28T01:53:35.591Z,-1.56
2018-11-28T01:56:23.610Z,-1.56
2018-11-28T01:58:52.301Z,-1.55
2018-11-28T02:01:20.988Z,-1.49
2018-11-28T02:04:08.972Z,-1.53
2018-11-28T02:06:37.617Z,-1.52
2018-11-28T02:09:09.012Z,-1.48
2018-11-28T02:11:56.971Z,-1.49
2018-11-28T02:14:25.691Z,-1.47
2018-11-28T02:16:54.411Z,-1.45
2018-11-28T02:19:42.407Z,-1.49
2018-11-28T02:22:11.224Z,-1.48
2018-11-28T02:24:39.865Z,-1.48
2018-11-28T02:27:08.781Z,-1.45
2018-11-28T02:29:37.495Z,-1.44
2018-11-28T02:32:06.388Z,-1.42
2018-11-28T02:34:54.403Z,-1.40
2018-11-28T02:37:23.043Z,-1.41
2018-11-28T02:39:51.723Z,-1.43
2018-11-28T02:42:39.732Z,-1.40
2018-11-28T02:45:27.723Z,-1.41
2018-11-28T02:47:56.383Z,-1.38
2018-11-28T02:50:44.633Z,-1.37
2018-11-28T02:53:13.312Z,-1.35
2018-11-28T02:55:42.092Z,-1.36
2018-11-28T02:58:10.734Z,-1.40
2018-11-28T03:00:58.732Z,-1.44
2018-11-28T03:03:27.449Z,-1.49
2018-11-28T03:05:56.240Z,-1.50
2018-11-28T03:08:44.174Z,-1.51
2018-11-28T03:11:12.918Z,-1.50
2018-11-28T03:13:41.486Z,-1.42
2018-11-28T03:16:29.457Z,-1.39
2018-11-28T03:18:58.138Z,-1.41
2018-11-28T03:21:26.901Z,-1.44
2018-11-28T03:24:14.848Z,-1.48
2018-11-28T03:26:43.631Z,-1.51
2018-11-28T03:29:12.243Z,-1.52
2018-11-28T03:32:00.280Z,-1.53
2018-11-28T03:34:28.877Z,-1.55
2018-11-28T03:36:57.588Z,-1.57
2018-11-28T03:39:45.891Z,-1.60
2018-11-28T03:42:15.010Z,-1.59
2018-11-28T03:44:43.612Z,-1.53
2018-11-28T03:47:12.282Z,-1.59
2018-11-28T03:50:00.328Z,-1.56
2018-11-28T03:52:29.069Z,-1.54
2018-11-28T03:54:57.766Z,-1.58
2018-11-28T03:57:46.294Z,-1.61
2018-11-28T04:00:34.339Z,-1.62
2018-11-28T04:03:03.109Z,-1.59
2018-11-28T04:05:51.081Z,-1.60
2018-11-28T04:08:21.849Z,-1.62
2018-11-28T04:10:50.676Z,-1.66
2018-11-28T04:13:38.646Z,-1.70
2018-11-28T04:16:07.702Z,-1.69
2018-11-28T04:19:24.547Z,-1.74
2018-11-28T04:24:53.914Z,-1.93
2018-11-28T04:27:41.952Z,-1.98
2018-11-28T04:30:30.026Z,-2.12
2018-11-28T04:32:58.658Z,-2.26
2018-11-28T04:35:46.936Z,-2.37
2018-11-28T04:38:15.673Z,-2.38
2018-11-28T04:41:03.981Z,-2.38
2018-11-28T04:43:32.662Z,-2.46
2018-11-28T04:46:01.462Z,-2.51
2018-11-28T04:48:30.101Z,-2.59
2018-11-28T04:51:18.128Z,-2.63
2018-11-28T04:53:46.826Z,-2.66
2018-11-28T04:56:15.584Z,-2.73
2018-11-28T04:59:03.567Z,-2.79
2018-11-28T05:01:32.274Z,-2.82
2018-11-28T05:04:01.042Z,-2.92
2018-11-28T05:07:08.590Z,-2.96
2018-11-28T05:09:37.424Z,-3.04
2018-11-28T05:12:06.185Z,-3.07
2018-11-28T05:14:54.461Z,-3.11
2018-11-28T05:17:31.028Z,-3.21
2018-11-28T05:19:59.760Z,-3.33
2018-11-28T05:22:48.037Z,-3.37
2018-11-28T05:25:29.376Z,-3.43
2018-11-28T05:28:20.841Z,-3.52
2018-11-28T05:30:49.558Z,-3.56
2018-11-28T05:36:26.909Z,-3.70
2018-11-28T05:38:57.387Z,-3.75
2018-11-28T05:41:24.285Z,-3.81
2018-11-28T05:44:12.271Z,-3.84
2018-11-28T05:46:41.326Z,-3.85
2018-11-28T05:49:15.026Z,-3.84
2018-11-28T05:51:38.751Z,-3.79
2018-11-28T05:54:07.522Z,-3.84
2018-11-28T05:56:36.196Z,-3.83
2018-11-28T05:59:04.939Z,-3.75
2018-11-28T06:01:33.741Z,-3.70
2018-11-28T06:06:50.148Z,-3.67
2018-11-28T06:09:38.366Z,-3.69
2018-11-28T06:12:07.227Z,-3.74
2018-11-28T06:14:36.060Z,-3.75
2018-11-28T06:17:04.723Z,-3.73
2018-11-28T06:19:53.008Z,-3.78
2018-11-28T06:22:21.740Z,-3.81
2018-11-28T06:24:52.168Z,-3.84
2018-11-28T06:27:40.496Z,-3.84
2018-11-28T06:30:37.528Z,-3.80
2018-11-28T06:33:06.601Z,-3.86
2018-11-28T06:35:54.622Z,-3.87
2018-11-28T06:38:42.587Z,-3.87
2018-11-28T06:41:30.315Z,-3.83
2018-11-28T06:43:59.015Z,-3.85
2018-11-28T06:46:27.719Z,-3.86
2018-11-28T06:48:56.430Z,-3.82
2018-11-28T06:51:25.132Z,-3.85
2018-11-28T06:53:54.042Z,-3.86
2018-11-28T06:56:43.271Z,-3.79
2018-11-28T06:59:10.743Z,-3.82
2018-11-28T07:02:00.712Z,-3.78
2018-11-28T07:04:49.030Z,-3.70
2018-11-28T07:07:18.998Z,-3.65
2018-11-28T07:09:47.686Z,-3.67
2018-11-28T07:12:36.010Z,-3.68
2018-11-28T07:15:04.819Z,-3.67
2018-11-28T07:17:33.510Z,-3.67
2018-11-28T07:20:23.287Z,-3.65
2018-11-28T07:22:54.877Z,-3.64
2018-11-28T07:25:25.682Z,-3.60
2018-11-28T07:28:13.998Z,-3.60
2018-11-28T07:30:42.723Z,-3.62
2018-11-28T07:33:11.458Z,-3.62
2018-11-28T07:35:40.906Z,-3.56
2018-11-28T07:38:28.910Z,-3.55
2018-11-28T07:40:57.609Z,-3.52
2018-11-28T07:43:26.305Z,-3.53
2018-11-28T07:46:14.561Z,-3.55
2018-11-28T07:48:43.323Z,-3.52
2018-11-28T07:51:14.100Z,-3.50
2018-11-28T07:54:02.434Z,-3.44
2018-11-28T07:56:31.164Z,-3.46
2018-11-28T07:58:59.783Z,-3.42
2018-11-28T08:01:28.449Z,-3.37
2018-11-28T08:04:16.754Z,-3.30
2018-11-28T08:06:45.717Z,-3.24
2018-11-28T08:09:14.347Z,-3.22
2018-11-28T08:11:43.074Z,-3.14
2018-11-28T08:14:31.344Z,-3.10
2018-11-28T08:17:00.106Z,-3.07
2018-11-28T08:22:36.259Z,-3.00
2018-11-28T08:25:04.748Z,-2.93
2018-11-28T08:27:33.209Z,-2.99
2018-11-28T08:30:40.718Z,-2.96
2018-11-28T08:33:30.798Z,-2.92
2018-11-28T08:35:59.563Z,-2.75
2018-11-28T08:38:47.886Z,-2.65
2018-11-28T08:41:19.264Z,-2.55
2018-11-28T08:46:48.117Z,-2.53
2018-11-28T08:49:16.892Z,-2.39
2018-11-28T08:51:46.087Z,-2.30
2018-11-28T08:54:34.350Z,-2.28
2018-11-28T08:57:03.017Z,-2.27
2018-11-28T08:59:31.728Z,-2.39
2018-11-28T09:02:02.921Z,-2.36
2018-11-28T09:04:51.829Z,-2.19
2018-11-28T09:07:20.486Z,-2.16
2018-11-28T09:09:49.831Z,-2.11
2018-11-28T09:12:17.790Z,-1.99
2018-11-28T09:15:34.974Z,-1.96
2018-11-28T09:18:22.970Z,-1.98
2018-11-28T09:21:29.928Z,-1.83
2018-11-28T09:23:58.569Z,-1.80
2018-11-28T09:26:27.261Z,-1.72
2018-11-28T09:29:15.578Z,-1.66
2018-11-28T09:31:45.753Z,-1.59
2018-11-28T09:34:14.394Z,-1.61
2018-11-28T09:36:43.087Z,-1.49
2018-11-28T09:39:31.385Z,-1.44
2018-11-28T09:42:00.159Z,-1.39
2018-11-28T09:44:28.880Z,-1.20
2018-11-28T09:46:59.847Z,-0.93
2018-11-28T09:49:48.094Z,-0.87
2018-11-28T09:52:16.808Z,-0.84
2018-11-28T09:54:45.515Z,-0.66
2018-11-28T09:57:14.160Z,-0.74
2018-11-28T10:00:02.467Z,-0.87
2018-11-28T10:02:31.235Z,-0.85
2018-11-28T10:08:01.554Z,-0.67
2018-11-28T10:10:31.065Z,-0.65
2018-11-28T10:12:59.716Z,-0.58
2018-11-28T10:18:54.618Z,-0.36
2018-11-28T10:21:23.332Z,-0.17
2018-11-28T10:24:11.627Z,-0.10
2018-11-28T10:26:40.330Z,0.00
2018-11-28T10:29:09.004Z,0.03
2018-11-28T10:31:39.924Z,0.19
2018-11-28T10:34:29.616Z,0.23
2018-11-28T10:39:47.154Z,0.26
2018-11-28T10:42:35.111Z,0.13
2018-11-28T10:45:03.853Z,0.29
2018-11-28T10:47:34.562Z,0.45
2018-11-28T10:50:22.831Z,0.64
2018-11-28T10:52:51.543Z,0.87
2018-11-28T10:55:40.913Z,0.87
2018-11-28T10:58:09.600Z,0.83
2018-11-28T11:00:57.585Z,0.82
2018-11-28T11:03:45.248Z,1.10
2018-11-28T11:09:52.128Z,1.04
2018-11-28T11:12:39.747Z,1.24
2018-11-28T11:15:14.767Z,1.62
2018-11-28T11:18:10.518Z,1.42
2018-11-28T11:20:34.759Z,1.52
2018-11-28T11:23:23.094Z,1.57
2018-11-28T11:25:52.178Z,1.54
2018-11-28T11:28:20.830Z,1.57
2018-11-28T11:30:49.600Z,1.56
2018-11-28T11:33:37.890Z,1.50
2018-11-28T11:36:25.907Z,1.34
2018-11-28T11:38:54.540Z,1.26
2018-11-28T11:41:42.553Z,1.45
2018-11-28T11:44:11.214Z,1.57
2018-11-28T11:46:39.860Z,1.71
2018-11-28T11:49:28.348Z,1.74
2018-11-28T11:51:56.784Z,1.59
2018-11-28T11:54:25.469Z,1.47
2018-11-28T11:56:54.120Z,1.24
2018-11-28T11:59:42.076Z,1.25
2018-11-28T12:08:48.769Z,0.82
2018-11-28T12:11:19.808Z,0.76
2018-11-28T12:14:08.042Z,0.91
2018-11-28T12:16:37.128Z,0.82
2018-11-28T12:19:06.513Z,0.62
2018-11-28T12:21:35.145Z,0.64
2018-11-28T12:24:23.389Z,0.52
2018-11-28T12:26:52.161Z,0.38
2018-11-28T12:29:20.769Z,0.36
2018-11-28T12:31:50.902Z,0.45
2018-11-28T12:34:39.150Z,0.38
2018-11-28T12:37:07.934Z,0.28
2018-11-28T12:39:36.553Z,0.20
2018-11-28T12:42:05.248Z,0.29
2018-11-28T12:44:53.235Z,0.19
2018-11-28T12:47:22.018Z,0.20
2018-11-28T12:52:50.618Z,0.11
2018-11-28T12:55:19.945Z,0.00
2018-11-28T12:57:48.651Z,-0.09
2018-11-28T13:00:55.960Z,-0.12
2018-11-28T13:03:24.699Z,-0.27
2018-11-28T13:06:12.909Z,-0.31
2018-11-28T13:08:41.902Z,-0.32
2018-11-28T13:11:10.579Z,-0.33
2018-11-28T13:13:41.585Z,-0.38
2018-11-28T13:16:29.528Z,-0.41
2018-11-28T13:18:58.275Z,-0.55
2018-11-28T13:21:28.962Z,-0.60
2018-11-28T13:24:14.376Z,-0.66
2018-11-28T13:26:41.794Z,-0.69
2018-11-28T13:29:10.423Z,-0.72
2018-11-28T13:31:39.118Z,-0.78
2018-11-28T13:34:28.443Z,-0.84
2018-11-28T13:43:45.574Z,-1.07
2018-11-28T13:46:14.699Z,-1.12
2018-11-28T13:49:02.707Z,-1.14
2018-11-28T13:51:31.399Z,-1.19
2018-11-28T13:54:00.024Z,-1.27
2018-11-28T13:57:05.019Z,-1.28
2018-11-28T13:59:16.928Z,-1.31
2018-11-28T14:01:45.633Z,-1.34
2018-11-28T14:04:14.267Z,-1.37
2018-11-28T14:07:02.282Z,-1.38
2018-11-28T14:09:30.977Z,-1.39
2018-11-28T14:12:18.977Z,-1.41
2018-11-28T14:14:49.992Z,-1.43
2018-11-28T14:17:18.651Z,-1.44
2018-11-28T14:20:07.806Z,-1.47
2018-11-28T14:22:36.477Z,-1.53
2018-11-28T14:25:05.216Z,-1.49
2018-11-28T14:27:53.195Z,-1.54
2018-11-28T14:30:22.928Z,-1.54
2018-11-28T14:32:52.125Z,-1.57
2018-11-28T14:35:40.102Z,-1.56
2018-11-28T14:38:28.077Z,-1.55
2018-11-28T14:41:16.374Z,-1.56
2018-11-28T14:44:04.071Z,-1.60
2018-11-28T14:46:52.003Z,-1.64
2018-11-28T14:49:20.702Z,-1.64
2018-11-28T14:51:49.379Z,-1.70
2018-11-28T14:54:37.415Z,-1.72
2018-11-28T14:57:06.969Z,-1.75
2018-11-28T14:59:56.663Z,-1.84
2018-11-28T15:02:25.298Z,-1.90
2018-11-28T15:04:53.894Z,-1.88
2018-11-28T15:07:41.878Z,-1.89
2018-11-28T15:10:11.191Z,-1.94
2018-11-28T15:12:59.178Z,-1.95
2018-11-28T15:15:29.269Z,-1.95
2018-11-28T15:17:56.655Z,-2.02
2018-11-28T15:20:47.323Z,-2.05
2018-11-28T15:23:16.004Z,-2.11
2018-11-28T15:25:44.990Z,-2.12
2018-11-28T15:28:33.173Z,-2.12
2018-11-28T15:31:01.848Z,-2.16
2018-11-28T15:33:33.246Z,-2.20
2018-11-28T15:36:04.426Z,-2.18
2018-11-28T15:38:55.123Z,-2.18
2018-11-28T15:41:23.816Z,-2.22
2018-11-28T15:43:54.634Z,-2.23
2018-11-28T15:46:23.325Z,-2.23
2018-11-28T15:49:16.028Z,-2.28
2018-11-28T15:51:56.870Z,-2.32
2018-11-28T15:54:26.638Z,-2.38
2018-11-28T15:57:16.128Z,-2.42
2018-11-28T15:59:47.758Z,-2.51
2018-11-28T16:02:36.025Z,-2.48
2018-11-28T16:05:05.472Z,-2.47
2018-11-28T16:07:34.121Z,-2.46
2018-11-28T16:10:41.294Z,-2.41
2018-11-28T16:13:10.110Z,-2.40
2018-11-28T16:15:59.049Z,-2.40
2018-11-28T16:21:15.418Z,-2.40
2018-11-28T16:24:03.379Z,-2.37
2018-11-28T16:26:32.089Z,-2.38
2018-11-28T16:29:00.808Z,-2.37
2018-11-28T16:31:48.760Z,-2.33
2018-11-28T16:34:19.524Z,-2.38
2018-11-28T16:36:48.236Z,-2.37
2018-11-28T16:42:28.677Z,-2.48
2018-11-28T16:44:57.360Z,-2.46
2018-11-28T16:48:04.699Z,-2.49
2018-11-28T16:50:35.151Z,-2.52
2018-11-28T16:53:23.150Z,-2.59
2018-11-28T16:55:54.049Z,-2.64
2018-11-28T16:58:22.639Z,-2.57
2018-11-28T17:01:15.921Z,-2.54
2018-11-28T17:06:32.382Z,-2.58
2018-11-28T17:09:20.386Z,-2.63
2018-11-28T17:12:41.605Z,-2.52
2018-11-28T17:15:55.912Z,-2.49
2018-11-28T17:18:25.013Z,-2.49
2018-11-28T17:20:53.688Z,-2.50
2018-11-28T17:23:41.972Z,-2.51
2018-11-28T17:26:10.609Z,-2.50
2018-11-28T17:28:39.286Z,-2.56
2018-11-28T17:31:12.410Z,-2.57
2018-11-28T17:34:01.066Z,-2.59
2018-11-28T17:36:29.750Z,-2.58
2018-11-28T17:39:00.956Z,-2.61
2018-11-28T17:41:49.200Z,-2.69
2018-11-28T17:47:05.667Z,-2.62
2018-11-28T17:49:53.697Z,-2.64
2018-11-28T17:52:22.490Z,-2.63
2018-11-28T17:54:51.100Z,-2.67
2018-11-28T17:57:39.408Z,-2.52
2018-11-28T18:00:12.360Z,-2.41
2018-11-28T18:02:41.307Z,-2.37
2018-11-28T18:05:10.837Z,-2.35
2018-11-28T18:08:18.325Z,-2.30
2018-11-28T18:10:46.976Z,-2.31
2018-11-28T18:13:16.841Z,-2.22
2018-11-28T18:16:05.093Z,-2.21
2018-11-28T18:18:33.807Z,-2.25
2018-11-28T18:21:02.512Z,-2.26
2018-11-28T18:23:31.233Z,-2.20
2018-11-28T18:26:21.631Z,-2.15
2018-11-28T18:28:50.340Z,-2.12
2018-11-28T18:31:38.536Z,-2.13
2018-11-28T18:34:07.315Z,-2.12
2018-11-28T18:36:36.006Z,-2.09
2018-11-28T18:39:05.524Z,-2.08
2018-11-28T18:41:53.799Z,-2.02
2018-11-28T18:44:22.501Z,-1.98
2018-11-28T18:46:51.121Z,-1.97
2018-11-28T18:49:19.803Z,-1.92
2018-11-28T18:54:58.698Z,-1.95
2018-11-28T18:57:27.363Z,-1.95
2018-11-28T19:00:36.712Z,-1.86
2018-11-28T19:03:07.870Z,-1.88
2018-11-28T19:05:36.836Z,-1.84
2018-11-28T19:08:05.738Z,-1.88
2018-11-28T19:10:54.046Z,-1.83
2018-11-28T19:13:22.960Z,-1.82
2018-11-28T19:15:51.674Z,-1.83
2018-11-28T19:18:39.926Z,-1.81
2018-11-28T19:21:09.751Z,-1.80
2018-11-28T19:23:37.341Z,-1.83
2018-11-28T19:26:08.492Z,-1.83
2018-11-28T19:28:56.783Z,-1.83
2018-11-28T19:31:25.450Z,-1.84
2018-11-28T19:33:54.052Z,-1.85
2018-11-28T19:36:22.717Z,-1.89
2018-11-28T19:39:10.997Z,-1.89
2018-11-28T19:41:39.644Z,-1.82
2018-11-28T19:44:08.351Z,-1.81
2018-11-28T19:46:58.637Z,-1.79
2018-11-28T19:49:27.372Z,-1.76
2018-11-28T19:51:56.021Z,-1.74
2018-11-28T19:54:44.308Z,-1.74
2018-11-28T19:57:12.950Z,-1.76
2018-11-28T19:59:43.692Z,-1.69
2018-11-28T20:02:12.334Z,-1.70
2018-11-28T20:05:00.599Z,-1.71
2018-11-28T20:07:29.362Z,-1.73
2018-11-28T20:10:17.278Z,-1.78
2018-11-28T20:12:46.035Z,-1.75
2018-11-28T20:15:34.352Z,-1.74
2018-11-28T20:18:03.025Z,-1.79
2018-11-28T20:20:31.640Z,-1.74
2018-11-28T20:23:02.161Z,-1.76
2018-11-28T20:25:48.610Z,-1.67
2018-11-28T20:28:17.276Z,-1.68
2018-11-28T20:30:49.188Z,-1.67
2018-11-28T20:33:18.350Z,-1.66
2018-11-28T20:36:06.650Z,-1.66
2018-11-28T20:38:54.669Z,-1.68
2018-11-28T20:41:23.506Z,-1.68
2018-11-28T20:44:11.614Z,-1.68
2018-11-28T20:46:40.326Z,-1.68
2018-11-28T20:49:28.242Z,-1.68
2018-11-28T20:51:58.776Z,-1.66
2018-11-28T20:54:29.600Z,-1.65
2018-11-28T20:56:58.195Z,-1.64
2018-11-28T20:59:46.489Z,-1.70
2018-11-28T21:02:15.180Z,-1.71
2018-11-28T21:04:52.559Z,-1.70
2018-11-28T21:07:21.475Z,-1.70
2018-11-28T21:10:29.369Z,-1.72
2018-11-28T21:12:58.054Z,-1.75
2018-11-28T21:15:26.656Z,-1.74
2018-11-28T21:18:14.986Z,-1.70
2018-11-28T21:20:45.079Z,-1.71
2018-11-28T21:23:18.307Z,-1.70
2018-11-28T21:26:13.065Z,-1.72
2018-11-28T21:28:41.764Z,-1.71
2018-11-28T21:31:10.465Z,-1.77
2018-11-28T21:34:05.384Z,-1.78
2018-11-28T21:36:32.893Z,-1.75
2018-11-28T21:39:04.987Z,-1.75
2018-11-28T21:41:53.288Z,-1.74
2018-11-28T21:47:09.597Z,-1.76
2018-11-28T21:49:57.865Z,-1.79
2018-11-28T21:55:36.126Z,-1.75
2018-11-28T21:58:04.834Z,-1.72
2018-11-28T22:00:33.606Z,-1.72
2018-11-28T22:03:02.195Z,-1.71
2018-11-28T22:05:43.448Z,-1.74
2018-11-28T22:08:23.875Z,-1.75
2018-11-28T22:10:55.384Z,-1.79
2018-11-28T22:13:24.012Z,-1.78
2018-11-28T22:16:12.232Z,-1.79
2018-11-28T22:18:40.943Z,-1.75
2018-11-28T22:21:12.332Z,-1.75
2018-11-28T22:23:41.019Z,-1.76
2018-11-28T22:26:29.304Z,-1.76
2018-11-28T22:29:00.218Z,-1.79
2018-11-28T22:31:28.894Z,-1.81
2018-11-28T22:33:57.572Z,-1.83
2018-11-28T22:36:45.855Z,-1.89
2018-11-28T22:39:14.572Z,-1.91
2018-11-28T22:41:44.028Z,-1.91
2018-11-28T22:44:12.644Z,-1.93
2018-11-28T22:47:00.884Z,-1.92
2018-11-28T22:49:29.571Z,-1.93
2018-11-28T22:51:58.623Z,-1.93
2018-11-28T22:54:53.643Z,-1.91
2018-11-28T22:57:22.316Z,-1.93
2018-11-28T22:59:55.851Z,-1.92
2018-11-28T23:03:22.144Z,-1.93
2018-11-28T23:05:52.001Z,-1.96
2018-11-28T23:08:39.997Z,-1.99
2018-11-28T23:11:08.659Z,-1.99
2018-11-28T23:16:44.218Z,-1.91
2018-11-28T23:19:12.900Z,-1.94
2018-11-28T23:22:00.853Z,-1.93
2018-11-28T23:24:29.531Z,-1.94
2018-11-28T23:27:17.483Z,-1.84
2018-11-28T23:29:46.271Z,-1.79
2018-11-28T23:32:14.959Z,-1.81
2018-11-28T23:35:22.199Z,-1.87
2018-11-28T23:37:51.035Z,-1.90
2018-11-28T23:40:20.462Z,-1.85
2018-11-28T23:43:08.438Z,-1.86
2018-11-28T23:45:37.159Z,-1.81
2018-11-28T23:48:05.996Z,-1.79
2018-11-28T23:50:34.668Z,-1.78
2018-11-28T23:53:03.374Z,-1.73
2018-11-28T23:55:32.441Z,-1.69
2018-11-28T23:58:20.828Z,-1.65
